Time;durP1;ratioP1;P1;durP2;ratioP2;P2;SDS_P1;SDS_P2;PMS_P1;PMS_P2;Temp;Humidity;BMP_temperature;BMP_pressure;BME280_temperature;BME280_humidity;BME280_pressure;Samples;Min_cycle;Max_cycle;Signal;HPM_P1;HPM_P2
2022/09/30 00:02:21;;;;;;;;;;;11.10;99.90;;;;;;4938075;29;19946;-80
2022/09/30 00:04:46;;;;;;;;;;;11.10;99.90;;;;;;4921237;29;20263;-79
2022/09/30 00:07:12;;;;;;;;;;;11.10;99.90;;;;;;4938357;29;19910;-80
2022/09/30 00:09:37;;;;;;;;;;;11.10;99.90;;;;;;4938220;29;19915;-79
2022/09/30 00:12:03;;;;;;;;;;;11.10;99.90;;;;;;4938151;29;19907;-80
2022/09/30 00:14:29;;;;;;;;;;;11.10;99.90;;;;;;4920908;29;19910;-79
2022/09/30 00:16:54;;;;;;;;;;;11.10;99.90;;;;;;4938243;29;19911;-80
2022/09/30 00:19:20;;;;;;;;;;;11.10;99.90;;;;;;4920837;29;20370;-80
2022/09/30 00:21:45;;;;;;;;;;;11.20;99.90;;;;;;4920868;29;19906;-81
2022/09/30 00:24:11;;;;;;;;;;;11.10;99.90;;;;;;4937982;29;19907;-79
2022/09/30 00:26:36;;;;;;;;;;;11.10;99.90;;;;;;4920485;29;20350;-80
2022/09/30 00:29:03;;;;;;;;;;;11.10;99.90;;;;;;4937486;29;19942;-80
2022/09/30 00:31:31;;;;;;;;;;;11.10;99.90;;;;;;4920645;29;20273;-80
2022/09/30 00:34:05;;;;;;;;;;;11.10;99.90;;;;;;4945744;28;19918;-80
2022/09/30 00:36:32;;;;;;;;;;;11.10;99.90;;;;;;4956701;28;19938;-79
2022/09/30 00:38:57;;;;;;;;;;;11.10;99.90;;;;;;4956829;28;19906;-80
2022/09/30 00:41:23;;;;;;;;;;;11.10;99.90;;;;;;4956468;28;19921;-80
2022/09/30 00:43:52;;;;;;;;;;;11.10;99.90;;;;;;4939455;28;19930;-79
2022/09/30 00:46:20;;;;;;;;;;;11.00;99.90;;;;;;4956865;28;19977;-80
2022/09/30 00:48:49;;;;;;;;;;;11.00;99.90;;;;;;4956604;28;19919;-79
2022/09/30 00:51:15;;;;;;;;;;;11.00;99.90;;;;;;4939105;29;20345;-80
2022/09/30 00:53:53;;;;;;;;;;;11.00;99.90;;;;;;4939537;28;19917;-80
2022/09/30 00:56:21;;;;;;;;;;;11.00;99.90;;;;;;4956346;28;19977;-80
2022/09/30 00:58:53;;;;;;;;;;;11.00;99.90;;;;;;4939131;28;19910;-80
2022/09/30 01:01:19;;;;;;;;;;;11.00;99.90;;;;;;4939102;29;19913;-79
2022/09/30 01:03:50;;;;;;;;;;;11.00;99.90;;;;;;4956451;28;20372;-79
2022/09/30 01:06:16;;;;;;;;;;;11.00;99.90;;;;;;4939047;28;19902;-79
2022/09/30 01:08:42;;;;;;;;;;;11.00;99.90;;;;;;4939093;28;19918;-80
2022/09/30 01:11:08;;;;;;;;;;;11.00;99.90;;;;;;4939212;28;19910;-80
2022/09/30 01:13:34;;;;;;;;;;;11.00;99.90;;;;;;4956166;28;19906;-80
2022/09/30 01:16:20;;;;;;;;;;;11.00;99.90;;;;;;4955853;28;19906;-79
2022/09/30 01:18:52;;;;;;;;;;;11.00;99.90;;;;;;4956158;28;19907;-80
2022/09/30 01:21:29;;;;;;;;;;;10.90;99.90;;;;;;4938703;28;20365;-79
2022/09/30 01:23:55;;;;;;;;;;;11.00;99.90;;;;;;4956071;28;19989;-80
2022/09/30 01:26:30;;;;;;;;;;;10.90;99.90;;;;;;4939109;28;20329;-79
2022/09/30 01:29:04;;;;;;;;;;;11.00;99.90;;;;;;4955837;28;19921;-80
2022/09/30 01:31:41;;;;;;;;;;;11.00;99.90;;;;;;4938516;28;20277;-79
2022/09/30 01:34:10;;;;;;;;;;;10.90;99.90;;;;;;4938343;28;19946;-80
2022/09/30 01:36:54;;;;;;;;;;;11.00;99.90;;;;;;4938553;28;19910;-79
2022/09/30 01:39:33;;;;;;;;;;;11.00;99.90;;;;;;4955580;28;19913;-79
2022/09/30 01:42:05;;;;;;;;;;;11.00;99.90;;;;;;4938173;28;19918;-79
2022/09/30 01:44:43;;;;;;;;;;;11.00;99.90;;;;;;4955757;28;19907;-79
2022/09/30 01:47:13;;;;;;;;;;;11.00;99.90;;;;;;4938163;28;19911;-79
2022/09/30 01:49:46;;;;;;;;;;;11.00;99.90;;;;;;4938159;29;19922;-79
2022/09/30 01:52:28;;;;;;;;;;;10.90;99.90;;;;;;4938269;28;19961;-80
2022/09/30 01:54:54;;;;;;;;;;;11.00;99.90;;;;;;4938469;28;20180;-79
2022/09/30 01:57:25;;;;;;;;;;;11.00;99.90;;;;;;4955419;28;20412;-78
2022/09/30 01:59:57;;;;;;;;;;;11.00;99.90;;;;;;4937987;29;19906;-80
2022/09/30 02:02:25;;;;;;;;;;;11.00;99.90;;;;;;4937903;28;20313;-80
2022/09/30 02:04:57;;;;;;;;;;;11.00;99.90;;;;;;4955141;28;19945;-80
2022/09/30 02:07:25;;;;;;;;;;;11.00;99.90;;;;;;4938088;28;19906;-80
2022/09/30 02:09:57;;;;;;;;;;;11.00;99.90;;;;;;4937862;28;19918;-82
2022/09/30 02:12:25;;;;;;;;;;;11.00;99.90;;;;;;4955167;28;19962;-80
2022/09/30 02:14:55;;;;;;;;;;;11.00;99.90;;;;;;4954959;28;19951;-81
2022/09/30 02:17:27;;;;;;;;;;;11.00;99.90;;;;;;4955014;28;19960;-78
2022/09/30 02:19:58;;;;;;;;;;;11.00;99.90;;;;;;4937524;28;20342;-79
2022/09/30 02:22:25;;;;;;;;;;;11.00;99.90;;;;;;4954909;28;20346;-79
2022/09/30 02:24:55;;;;;;;;;;;11.00;99.90;;;;;;4937614;28;19914;-80
2022/09/30 02:27:25;;;;;;;;;;;11.00;99.90;;;;;;4954812;28;19929;-79
2022/09/30 02:29:53;;;;;;;;;;;11.00;99.90;;;;;;4954438;28;19940;-79
2022/09/30 02:32:26;;;;;;;;;;;10.90;99.90;;;;;;4937264;28;19907;-79
2022/09/30 02:34:59;;;;;;;;;;;11.00;99.90;;;;;;4954431;28;19918;-81
2022/09/30 02:37:33;;;;;;;;;;;11.00;99.90;;;;;;4937339;28;19914;-81
2022/09/30 02:39:59;;;;;;;;;;;11.00;99.90;;;;;;4954891;28;19906;-81
2022/09/30 02:42:27;;;;;;;;;;;10.90;99.90;;;;;;4954468;28;19977;-81
2022/09/30 02:44:55;;;;;;;;;;;11.00;99.90;;;;;;4954599;28;20042;-81
2022/09/30 02:47:30;;;;;;;;;;;11.00;99.90;;;;;;4954465;28;19907;-80
2022/09/30 02:49:55;;;;;;;;;;;11.00;99.90;;;;;;4936440;28;20005;-81
2022/09/30 02:52:28;;;;;;;;;;;11.00;99.90;;;;;;4937054;28;19993;-81
2022/09/30 02:55:06;;;;;;;;;;;11.00;99.90;;;;;;4937110;28;19941;-81
2022/09/30 02:57:39;;;;;;;;;;;11.00;99.90;;;;;;4937273;28;19910;-81
2022/09/30 03:00:06;;;;;;;;;;;11.00;99.90;;;;;;4937110;28;19913;-80
2022/09/30 03:02:31;;;;;;;;;;;11.00;99.90;;;;;;4953980;28;19962;-81
2022/09/30 03:04:57;;;;;;;;;;;11.00;99.90;;;;;;4936714;28;19954;-80
2022/09/30 03:07:23;;;;;;;;;;;11.00;99.90;;;;;;4936995;29;19910;-82
2022/09/30 03:09:48;;;;;;;;;;;11.00;99.90;;;;;;4936822;28;20353;-80
2022/09/30 03:12:37;;;;;;;;;;;11.00;99.90;;;;;;4954016;28;19910;-80
2022/09/30 03:15:02;;;;;;;;;;;11.00;99.90;;;;;;4936639;28;19906;-81
2022/09/30 03:17:31;;;;;;;;;;;11.00;99.90;;;;;;4954189;28;20365;-80
2022/09/30 03:20:15;;;;;;;;;;;11.00;99.90;;;;;;4936921;28;19911;-81
2022/09/30 03:23:04;;;;;;;;;;;10.90;99.90;;;;;;4954053;28;20368;-81
2022/09/30 03:25:49;;;;;;;;;;;10.90;99.90;;;;;;4926934;28;19906;-80
2022/09/30 03:28:26;;;;;;;;;;;10.90;99.90;;;;;;4936808;28;19965;-81
2022/09/30 03:30:52;;;;;;;;;;;11.00;99.90;;;;;;4954027;28;19906;-81
2022/09/30 03:33:23;;;;;;;;;;;10.90;99.90;;;;;;4954006;28;20380;-81
2022/09/30 03:35:49;;;;;;;;;;;10.90;99.90;;;;;;4954306;28;20369;-81
2022/09/30 03:38:37;;;;;;;;;;;10.90;99.90;;;;;;4937014;28;19917;-81
2022/09/30 03:41:09;;;;;;;;;;;11.00;99.90;;;;;;4943521;28;19906;-81
2022/09/30 03:43:43;;;;;;;;;;;11.00;99.90;;;;;;4937016;28;19973;-80
2022/09/30 03:46:15;;;;;;;;;;;11.00;99.90;;;;;;4954201;28;19913;-81
2022/09/30 03:48:41;;;;;;;;;;;11.00;99.90;;;;;;4936662;28;19941;-82
2022/09/30 03:51:08;;;;;;;;;;;10.90;99.90;;;;;;4953838;28;19906;-81
2022/09/30 03:53:40;;;;;;;;;;;11.00;99.90;;;;;;4953784;28;20353;-81
2022/09/30 03:56:06;;;;;;;;;;;11.00;99.90;;;;;;4953857;28;19972;-80
2022/09/30 03:58:33;;;;;;;;;;;11.00;99.90;;;;;;4954022;28;20389;-81
2022/09/30 04:00:59;;;;;;;;;;;11.00;99.90;;;;;;4955115;28;19954;-81
2022/09/30 04:03:26;;;;;;;;;;;11.00;99.90;;;;;;4957458;28;19952;-81
2022/09/30 04:05:52;;;;;;;;;;;11.00;99.90;;;;;;4940224;28;19906;-81
2022/09/30 04:08:17;;;;;;;;;;;11.00;99.90;;;;;;4957378;28;19911;-81
2022/09/30 04:10:43;;;;;;;;;;;11.10;99.90;;;;;;4940010;28;19952;-81
2022/09/30 04:13:09;;;;;;;;;;;11.10;99.90;;;;;;4957062;28;19909;-81
2022/09/30 04:15:35;;;;;;;;;;;11.10;99.90;;;;;;4940026;28;19907;-81
2022/09/30 04:18:00;;;;;;;;;;;11.10;99.90;;;;;;4939914;28;19929;-80
2022/09/30 04:20:26;;;;;;;;;;;11.10;99.90;;;;;;4939832;28;19987;-81
2022/09/30 04:22:51;;;;;;;;;;;11.10;99.90;;;;;;4957131;28;19965;-82
2022/09/30 04:25:17;;;;;;;;;;;11.10;99.90;;;;;;4939818;28;19907;-81
2022/09/30 04:27:42;;;;;;;;;;;11.00;99.90;;;;;;4956986;28;19962;-80
2022/09/30 04:30:08;;;;;;;;;;;11.10;99.90;;;;;;4956793;28;19914;-80
2022/09/30 04:32:34;;;;;;;;;;;11.10;99.90;;;;;;4956701;28;19929;-81
2022/09/30 04:34:59;;;;;;;;;;;11.10;99.90;;;;;;4939547;28;19925;-80
2022/09/30 04:37:25;;;;;;;;;;;11.00;99.90;;;;;;4939592;28;19915;-82
2022/09/30 04:39:50;;;;;;;;;;;11.00;99.90;;;;;;4939441;28;20418;-81
2022/09/30 04:42:17;;;;;;;;;;;11.00;99.90;;;;;;4956565;28;19907;-82
2022/09/30 04:44:42;;;;;;;;;;;11.10;99.90;;;;;;4939497;28;19907;-81
2022/09/30 04:47:08;;;;;;;;;;;11.10;99.90;;;;;;4939648;28;19910;-81
2022/09/30 04:49:34;;;;;;;;;;;11.10;99.90;;;;;;4956324;28;19918;-82
2022/09/30 04:51:59;;;;;;;;;;;11.10;99.90;;;;;;4939247;28;20309;-81
2022/09/30 04:54:25;;;;;;;;;;;11.10;99.90;;;;;;4956692;28;19916;-81
2022/09/30 04:56:50;;;;;;;;;;;11.10;99.90;;;;;;4956484;28;19906;-81
2022/09/30 04:59:16;;;;;;;;;;;11.10;99.90;;;;;;4956454;28;20306;-79
2022/09/30 05:01:43;;;;;;;;;;;11.10;99.90;;;;;;4939059;28;19950;-81
2022/09/30 05:04:10;;;;;;;;;;;11.20;99.90;;;;;;4938951;28;20000;-80
2022/09/30 05:06:36;;;;;;;;;;;11.40;99.90;;;;;;4938982;29;19913;-76
2022/09/30 05:09:02;;;;;;;;;;;11.40;99.90;;;;;;4956030;28;20277;-77
2022/09/30 05:11:28;;;;;;;;;;;11.40;99.90;;;;;;4955826;28;19946;-76
2022/09/30 05:13:54;;;;;;;;;;;11.30;99.90;;;;;;4958019;28;19906;-77
2022/09/30 05:16:20;;;;;;;;;;;11.20;99.90;;;;;;4956081;28;19989;-76
2022/09/30 05:18:46;;;;;;;;;;;11.20;99.90;;;;;;4957889;28;19949;-82
2022/09/30 05:21:12;;;;;;;;;;;11.10;99.90;;;;;;4938850;28;19903;-82
2022/09/30 05:23:38;;;;;;;;;;;11.10;99.90;;;;;;4938925;28;19921;-82
2022/09/30 05:26:03;;;;;;;;;;;11.10;99.90;;;;;;4955989;28;19997;-80
2022/09/30 05:28:32;;;;;;;;;;;11.10;99.90;;;;;;4938537;28;19918;-81
2022/09/30 05:30:59;;;;;;;;;;;11.10;99.90;;;;;;4938497;28;19961;-81
2022/09/30 05:33:25;;;;;;;;;;;11.20;99.90;;;;;;4938445;28;19922;-81
2022/09/30 05:35:51;;;;;;;;;;;11.20;99.90;;;;;;4955706;28;19966;-80
2022/09/30 05:38:16;;;;;;;;;;;11.10;99.90;;;;;;4938430;28;19910;-81
2022/09/30 05:40:42;;;;;;;;;;;11.10;99.90;;;;;;4955672;28;19903;-81
2022/09/30 05:43:08;;;;;;;;;;;11.10;99.90;;;;;;4938375;28;19906;-81
2022/09/30 05:45:34;;;;;;;;;;;11.20;99.90;;;;;;4955337;28;19902;-81
2022/09/30 05:48:00;;;;;;;;;;;11.20;99.90;;;;;;4938137;28;20045;-81
2022/09/30 05:50:25;;;;;;;;;;;11.20;99.90;;;;;;4955358;28;19910;-81
2022/09/30 05:52:51;;;;;;;;;;;11.20;99.90;;;;;;4955529;28;19911;-81
2022/09/30 05:55:17;;;;;;;;;;;11.20;99.90;;;;;;4955477;28;20310;-82
2022/09/30 05:57:46;;;;;;;;;;;11.30;99.90;;;;;;4938307;28;19907;-82
2022/09/30 06:00:12;;;;;;;;;;;11.30;99.90;;;;;;4938429;28;20032;-81
2022/09/30 06:02:38;;;;;;;;;;;11.40;99.90;;;;;;4937889;28;20007;-80
2022/09/30 06:05:05;;;;;;;;;;;11.40;99.90;;;;;;4954887;28;19907;-81
2022/09/30 06:07:31;;;;;;;;;;;11.40;99.90;;;;;;4938048;29;19917;-81
2022/09/30 06:09:57;;;;;;;;;;;11.50;99.90;;;;;;4955419;29;19910;-82
2022/09/30 06:12:23;;;;;;;;;;;11.50;99.90;;;;;;4955155;29;19911;-83
2022/09/30 06:14:49;;;;;;;;;;;11.50;99.90;;;;;;4937508;29;20318;-82
2022/09/30 06:17:17;;;;;;;;;;;11.50;99.90;;;;;;4937882;29;20027;-82
2022/09/30 06:19:42;;;;;;;;;;;11.50;99.90;;;;;;4937982;29;19981;-82
2022/09/30 06:22:08;;;;;;;;;;;11.50;99.90;;;;;;4955176;29;19913;-82
2022/09/30 06:24:33;;;;;;;;;;;11.60;99.90;;;;;;4937906;29;20371;-82
2022/09/30 06:26:59;;;;;;;;;;;11.60;99.90;;;;;;4938144;29;19906;-82
2022/09/30 06:29:24;;;;;;;;;;;11.60;99.90;;;;;;4955112;29;19918;-82
2022/09/30 06:31:50;;;;;;;;;;;11.60;99.90;;;;;;4954709;29;19906;-82
2022/09/30 06:34:15;;;;;;;;;;;11.70;99.90;;;;;;4954756;29;19923;-82
2022/09/30 06:36:41;;;;;;;;;;;11.70;99.90;;;;;;4937883;29;20341;-83
2022/09/30 06:39:06;;;;;;;;;;;11.80;99.90;;;;;;4937744;29;19910;-82
2022/09/30 06:41:32;;;;;;;;;;;11.80;99.90;;;;;;4937474;29;20239;-81
2022/09/30 06:43:57;;;;;;;;;;;11.90;99.90;;;;;;4954510;29;19949;-82
2022/09/30 06:46:24;;;;;;;;;;;11.90;99.90;;;;;;4954244;29;19907;-83
2022/09/30 06:48:53;;;;;;;;;;;11.90;99.90;;;;;;4954055;29;20005;-81
2022/09/30 06:51:19;;;;;;;;;;;12.00;99.90;;;;;;4936907;29;20349;-81
2022/09/30 06:53:44;;;;;;;;;;;12.10;99.90;;;;;;4953798;29;19914;-81
2022/09/30 06:56:10;;;;;;;;;;;12.10;99.90;;;;;;4953936;29;20321;-81
2022/09/30 06:58:35;;;;;;;;;;;12.10;99.90;;;;;;4954018;29;19962;-81
2022/09/30 07:01:03;;;;;;;;;;;12.10;99.90;;;;;;4937640;29;19953;-80
2022/09/30 07:03:33;;;;;;;;;;;12.10;99.90;;;;;;4954366;29;19945;-80
2022/09/30 07:05:59;;;;;;;;;;;12.10;99.90;;;;;;4954141;29;19910;-80
2022/09/30 07:08:29;;;;;;;;;;;12.20;99.90;;;;;;4937045;29;20890;-80
2022/09/30 07:10:54;;;;;;;;;;;12.20;99.90;;;;;;4937115;29;19960;-81
2022/09/30 07:13:20;;;;;;;;;;;12.30;99.90;;;;;;4936734;29;19950;-80
2022/09/30 07:15:45;;;;;;;;;;;12.70;99.90;;;;;;4937237;29;19910;-80
2022/09/30 07:18:11;;;;;;;;;;;12.80;99.90;;;;;;4954521;29;19917;-80
2022/09/30 07:20:36;;;;;;;;;;;12.80;99.90;;;;;;4954426;29;19989;-79
2022/09/30 07:23:01;;;;;;;;;;;12.70;99.90;;;;;;4954423;29;19910;-80
2022/09/30 07:25:28;;;;;;;;;;;12.80;99.90;;;;;;4947488;28;19915;-80
2022/09/30 07:27:55;;;;;;;;;;;12.90;99.90;;;;;;4940151;28;19917;-88
2022/09/30 07:30:20;;;;;;;;;;;12.80;99.90;;;;;;4937433;28;19910;-87
2022/09/30 07:32:46;;;;;;;;;;;12.80;99.90;;;;;;4953222;28;20373;-78
2022/09/30 07:35:11;;;;;;;;;;;12.70;99.90;;;;;;4953560;28;19938;-78
2022/09/30 07:37:37;;;;;;;;;;;12.60;99.90;;;;;;4956996;28;19910;-77
2022/09/30 07:40:05;;;;;;;;;;;12.60;99.90;;;;;;4957081;28;19907;-82
2022/09/30 07:42:30;;;;;;;;;;;12.50;99.90;;;;;;4957202;28;19907;-80
2022/09/30 07:44:57;;;;;;;;;;;12.60;99.90;;;;;;4955968;28;19910;-79
2022/09/30 07:47:22;;;;;;;;;;;12.60;99.90;;;;;;4957009;28;19911;-78
2022/09/30 07:49:48;;;;;;;;;;;12.60;99.90;;;;;;4957193;28;19950;-79
2022/09/30 07:52:13;;;;;;;;;;;12.60;99.90;;;;;;4956871;28;19996;-77
2022/09/30 07:54:39;;;;;;;;;;;12.60;99.90;;;;;;4956958;28;20001;-80
2022/09/30 07:57:05;;;;;;;;;;;12.60;99.90;;;;;;4953739;28;20267;-81
2022/09/30 07:59:31;;;;;;;;;;;12.60;99.90;;;;;;4940203;28;19906;-86
2022/09/30 08:01:57;;;;;;;;;;;12.70;99.90;;;;;;4940008;28;19910;-79
2022/09/30 08:04:23;;;;;;;;;;;12.80;99.90;;;;;;4940516;29;20385;-80
2022/09/30 08:06:59;;;;;;;;;;;12.90;99.90;;;;;;4937854;29;20078;-80
2022/09/30 08:09:25;;;;;;;;;;;12.90;99.90;;;;;;4935719;28;19974;-79
2022/09/30 08:11:51;;;;;;;;;;;13.00;99.90;;;;;;4952628;28;20368;-78
2022/09/30 08:14:19;;;;;;;;;;;13.10;99.90;;;;;;4954796;28;19911;-80
2022/09/30 08:16:45;;;;;;;;;;;13.10;99.90;;;;;;4948956;28;20412;-78
2022/09/30 08:19:18;;;;;;;;;;;13.20;99.90;;;;;;4948044;28;19911;-83
2022/09/30 08:21:43;;;;;;;;;;;13.30;99.90;;;;;;4949777;28;19910;-78
2022/09/30 08:24:09;;;;;;;;;;;13.30;99.90;;;;;;4940467;29;20446;-79
2022/09/30 08:26:34;;;;;;;;;;;13.20;99.90;;;;;;4936896;29;20298;-75
2022/09/30 08:29:00;;;;;;;;;;;13.30;99.90;;;;;;4936202;29;19922;-75
2022/09/30 08:31:26;;;;;;;;;;;13.30;99.90;;;;;;4936914;29;20015;-77
2022/09/30 08:33:52;;;;;;;;;;;13.30;99.90;;;;;;4936802;29;20269;-77
2022/09/30 08:36:22;;;;;;;;;;;13.30;99.90;;;;;;4936713;29;19912;-75
2022/09/30 08:38:47;;;;;;;;;;;13.40;99.90;;;;;;4919627;29;19906;-76
2022/09/30 08:41:32;;;;;;;;;;;13.50;99.90;;;;;;4937625;29;20293;-77
2022/09/30 08:44:00;;;;;;;;;;;13.50;99.90;;;;;;4954238;28;19943;-80
2022/09/30 08:46:44;;;;;;;;;;;13.70;99.90;;;;;;4938883;28;19914;-76
2022/09/30 08:49:24;;;;;;;;;;;13.90;99.90;;;;;;4955936;28;19962;-76
2022/09/30 08:51:51;;;;;;;;;;;14.00;99.90;;;;;;4939022;28;20433;-75
2022/09/30 08:54:23;;;;;;;;;;;14.00;99.90;;;;;;4939433;28;19917;-76
2022/09/30 08:56:49;;;;;;;;;;;14.10;99.90;;;;;;4955887;28;19914;-77
2022/09/30 08:59:27;;;;;;;;;;;14.20;99.90;;;;;;4955735;28;20265;-77
2022/09/30 09:02:05;;;;;;;;;;;14.10;99.90;;;;;;4938380;28;19907;-77
2022/09/30 09:04:30;;;;;;;;;;;14.10;99.90;;;;;;4955932;28;19961;-77
2022/09/30 09:07:04;;;;;;;;;;;14.00;99.90;;;;;;4956252;28;20358;-77
2022/09/30 09:09:37;;;;;;;;;;;13.90;99.90;;;;;;4955818;28;20376;-76
2022/09/30 09:12:21;;;;;;;;;;;13.90;99.90;;;;;;4955800;28;19907;-76
2022/09/30 09:14:53;;;;;;;;;;;13.80;99.90;;;;;;4955769;28;19917;-76
2022/09/30 09:17:30;;;;;;;;;;;13.80;99.90;;;;;;4938461;28;20384;-76
2022/09/30 09:20:01;;;;;;;;;;;13.90;99.90;;;;;;4955316;28;20361;-76
2022/09/30 09:22:27;;;;;;;;;;;14.00;99.90;;;;;;4955479;28;19918;-76
2022/09/30 09:24:54;;;;;;;;;;;14.00;99.90;;;;;;4955069;28;19910;-76
2022/09/30 09:27:24;;;;;;;;;;;14.00;99.90;;;;;;4953966;28;20265;-76
2022/09/30 09:29:49;;;;;;;;;;;14.00;99.90;;;;;;4955235;28;19914;-76
2022/09/30 09:32:16;;;;;;;;;;;14.00;99.90;;;;;;4955227;28;19913;-75
2022/09/30 09:34:50;;;;;;;;;;;14.10;99.90;;;;;;4955015;28;20736;-75
2022/09/30 09:37:19;;;;;;;;;;;14.20;99.90;;;;;;4954878;28;20409;-77
2022/09/30 09:39:44;;;;;;;;;;;14.40;99.90;;;;;;4954484;28;19906;-77
2022/09/30 09:42:19;;;;;;;;;;;14.70;99.90;;;;;;4949037;28;19917;-77
2022/09/30 09:45:03;;;;;;;;;;;14.90;99.90;;;;;;4955068;28;19906;-77
2022/09/30 09:47:28;;;;;;;;;;;15.10;99.90;;;;;;4955084;28;19917;-77
2022/09/30 09:49:56;;;;;;;;;;;15.30;99.90;;;;;;4954499;28;20005;-77
2022/09/30 09:52:51;;;;;;;;;;;15.20;99.90;;;;;;4954518;28;19912;-77
2022/09/30 09:55:19;;;;;;;;;;;15.40;99.90;;;;;;4902457;28;19914;-78
2022/09/30 09:57:45;;;;;;;;;;;15.30;99.90;;;;;;4954836;28;19906;-77
2022/09/30 10:03:10;;;;;;;;;;;15.10;99.90;;;;;;4954259;28;19917;-77
2022/09/30 10:05:39;;;;;;;;;;;15.10;99.90;;;;;;4934984;28;19917;-80
2022/09/30 10:08:11;;;;;;;;;;;15.10;99.90;;;;;;4927386;29;20397;-80
2022/09/30 10:10:42;;;;;;;;;;;15.00;99.90;;;;;;4940787;28;19958;-82
2022/09/30 10:13:15;;;;;;;;;;;15.00;99.90;;;;;;4918292;29;19902;-82
2022/09/30 10:15:41;;;;;;;;;;;15.00;99.90;;;;;;4945240;28;20329;-80
2022/09/30 10:18:22;;;;;;;;;;;15.00;99.90;;;;;;4935493;28;19918;-79
2022/09/30 10:20:50;;;;;;;;;;;15.10;99.90;;;;;;4934543;29;19917;-80
2022/09/30 10:23:18;;;;;;;;;;;15.20;99.90;;;;;;4941203;28;20365;-80
2022/09/30 10:25:53;;;;;;;;;;;15.30;99.90;;;;;;4933244;29;20002;-81
2022/09/30 10:28:22;;;;;;;;;;;15.40;99.90;;;;;;4921347;29;19925;-81
2022/09/30 10:30:49;;;;;;;;;;;15.40;99.90;;;;;;4917534;29;19906;-81
2022/09/30 10:33:14;;;;;;;;;;;15.50;99.90;;;;;;4943523;28;19911;-81
2022/09/30 10:35:52;;;;;;;;;;;15.50;99.90;;;;;;4953893;28;19918;-81
2022/09/30 10:38:18;;;;;;;;;;;15.60;99.90;;;;;;4932926;28;19918;-81
2022/09/30 10:40:47;;;;;;;;;;;15.60;99.90;;;;;;4953817;28;19915;-80
2022/09/30 10:43:22;;;;;;;;;;;15.50;99.90;;;;;;4936416;28;20242;-79
2022/09/30 10:45:48;;;;;;;;;;;15.40;99.90;;;;;;4936809;28;19906;-80
2022/09/30 10:48:16;;;;;;;;;;;15.40;99.90;;;;;;4936379;29;19915;-79
2022/09/30 10:50:48;;;;;;;;;;;15.30;99.90;;;;;;4936802;28;19912;-79
2022/09/30 10:53:18;;;;;;;;;;;15.20;99.90;;;;;;4936769;29;19906;-81
2022/09/30 10:55:44;;;;;;;;;;;15.20;99.90;;;;;;4953516;28;20375;-80
2022/09/30 10:58:29;;;;;;;;;;;15.30;99.90;;;;;;4936450;28;19907;-80
2022/09/30 11:01:14;;;;;;;;;;;15.30;99.90;;;;;;4952080;28;19914;-81
2022/09/30 11:04:00;;;;;;;;;;;15.20;99.90;;;;;;4953904;28;19906;-81
2022/09/30 11:06:28;;;;;;;;;;;15.20;99.90;;;;;;4948304;28;20365;-80
2022/09/30 11:09:02;;;;;;;;;;;15.20;99.90;;;;;;4937414;28;20503;-80
2022/09/30 11:11:32;;;;;;;;;;;15.20;99.90;;;;;;4954634;28;19910;-80
2022/09/30 11:14:11;;;;;;;;;;;15.20;99.90;;;;;;4956397;28;19910;-80
2022/09/30 11:16:45;;;;;;;;;;;15.10;99.90;;;;;;4956624;28;19907;-80
2022/09/30 11:19:20;;;;;;;;;;;15.10;99.90;;;;;;4956252;28;19907;-80
2022/09/30 11:21:54;;;;;;;;;;;15.10;99.90;;;;;;4955747;28;19973;-80
2022/09/30 11:24:27;;;;;;;;;;;15.10;99.90;;;;;;4950798;28;19953;-80
2022/09/30 11:26:53;;;;;;;;;;;15.10;99.90;;;;;;4931073;29;20017;-80
2022/09/30 11:29:18;;;;;;;;;;;15.10;99.90;;;;;;4921974;29;20022;-79
2022/09/30 11:31:50;;;;;;;;;;;15.00;99.90;;;;;;4924179;29;20294;-81
2022/09/30 11:34:24;;;;;;;;;;;14.90;99.90;;;;;;4938959;28;19919;-81
2022/09/30 11:36:53;;;;;;;;;;;14.90;99.90;;;;;;4944273;28;19910;-82
2022/09/30 11:39:37;;;;;;;;;;;14.80;99.90;;;;;;4942254;28;20005;-81
2022/09/30 11:42:06;;;;;;;;;;;14.80;99.90;;;;;;4953635;28;19917;-81
2022/09/30 11:44:34;;;;;;;;;;;14.80;99.90;;;;;;4939409;28;19906;-81
2022/09/30 11:47:04;;;;;;;;;;;14.80;99.90;;;;;;4948192;28;20440;-81
2022/09/30 11:49:30;;;;;;;;;;;14.80;99.90;;;;;;4953709;28;20009;-81
2022/09/30 11:51:55;;;;;;;;;;;14.80;99.90;;;;;;4939059;29;20018;-81
2022/09/30 11:54:27;;;;;;;;;;;14.90;99.90;;;;;;4924280;29;19918;-81
2022/09/30 11:56:56;;;;;;;;;;;15.00;99.90;;;;;;4939558;28;20001;-81
2022/09/30 11:59:30;;;;;;;;;;;15.00;99.90;;;;;;4955693;28;19906;-84
2022/09/30 12:01:59;;;;;;;;;;;15.10;99.90;;;;;;4938049;29;19915;-81
2022/09/30 12:04:34;;;;;;;;;;;15.10;99.90;;;;;;4949092;28;19914;-82
2022/09/30 12:07:22;;;;;;;;;;;15.20;99.90;;;;;;4937444;29;19952;-81
2022/09/30 12:09:50;;;;;;;;;;;15.30;99.90;;;;;;4929574;29;19919;-81
2022/09/30 12:12:17;;;;;;;;;;;15.40;99.90;;;;;;4936448;29;20682;-81
2022/09/30 12:14:52;;;;;;;;;;;15.40;99.90;;;;;;4938675;28;19913;-80
2022/09/30 12:17:18;;;;;;;;;;;15.40;99.90;;;;;;4937383;28;20408;-80
2022/09/30 12:19:46;;;;;;;;;;;15.40;99.90;;;;;;4940074;28;19974;-81
2022/09/30 12:22:25;;;;;;;;;;;15.30;99.90;;;;;;4953935;28;19906;-81
2022/09/30 12:24:50;;;;;;;;;;;15.30;99.90;;;;;;4953303;28;19914;-81
2022/09/30 12:27:19;;;;;;;;;;;15.20;99.90;;;;;;4952586;28;20400;-81
2022/09/30 12:32:39;;;;;;;;;;;15.10;99.90;;;;;;4952274;28;19918;-81
2022/09/30 12:35:08;;;;;;;;;;;15.10;99.90;;;;;;4955972;28;19926;-79
2022/09/30 12:37:36;;;;;;;;;;;15.00;99.90;;;;;;4939294;28;20003;-80
2022/09/30 12:40:19;;;;;;;;;;;15.00;99.90;;;;;;4922769;28;19993;-80
2022/09/30 12:42:48;;;;;;;;;;;14.90;99.90;;;;;;4955919;28;19907;-81
2022/09/30 12:45:19;;;;;;;;;;;14.90;99.90;;;;;;4951859;28;19951;-80
2022/09/30 12:47:48;;;;;;;;;;;14.80;99.90;;;;;;4922701;28;19910;-81
2022/09/30 12:50:16;;;;;;;;;;;14.80;99.90;;;;;;4920741;29;19918;-81
2022/09/30 12:52:42;;;;;;;;;;;14.70;99.90;;;;;;4935199;28;19907;-81
2022/09/30 12:55:30;;;;;;;;;;;14.70;99.90;;;;;;4933162;29;19921;-81
2022/09/30 12:57:57;;;;;;;;;;;14.60;99.90;;;;;;4919649;29;19906;-81
2022/09/30 13:00:23;;;;;;;;;;;14.60;99.90;;;;;;4936639;29;19911;-81
2022/09/30 13:03:02;;;;;;;;;;;14.60;99.90;;;;;;4939604;28;19910;-82
2022/09/30 13:05:30;;;;;;;;;;;14.50;99.90;;;;;;4937425;28;19910;-81
2022/09/30 13:08:02;;;;;;;;;;;14.50;99.90;;;;;;4936097;28;19907;-80
2022/09/30 13:10:29;;;;;;;;;;;14.70;99.90;;;;;;4938989;28;19907;-80
2022/09/30 13:13:10;;;;;;;;;;;14.70;99.90;;;;;;4939058;28;20001;-80
2022/09/30 13:15:35;;;;;;;;;;;14.70;99.90;;;;;;4939164;28;19989;-81
2022/09/30 13:18:19;;;;;;;;;;;14.60;99.90;;;;;;4939151;28;20398;-79
2022/09/30 13:20:48;;;;;;;;;;;14.60;99.90;;;;;;4939255;28;19921;-81
2022/09/30 13:23:34;;;;;;;;;;;14.50;99.90;;;;;;4939048;28;19902;-80
2022/09/30 13:26:00;;;;;;;;;;;14.50;99.90;;;;;;4939141;28;19910;-81
2022/09/30 13:28:28;;;;;;;;;;;14.60;99.90;;;;;;4938378;29;19918;-81
2022/09/30 13:31:27;;;;;;;;;;;14.70;99.90;;;;;;4938830;29;19906;-81
2022/09/30 13:34:00;;;;;;;;;;;14.80;99.90;;;;;;4916650;29;20728;-80
2022/09/30 13:36:27;;;;;;;;;;;15.00;99.90;;;;;;4938755;29;19910;-80
2022/09/30 13:39:12;;;;;;;;;;;15.10;99.90;;;;;;4938639;29;19907;-80
2022/09/30 13:41:38;;;;;;;;;;;15.10;99.90;;;;;;4938495;29;19998;-80
2022/09/30 13:44:12;;;;;;;;;;;15.20;99.90;;;;;;4938504;29;19997;-80
2022/09/30 13:46:48;;;;;;;;;;;15.30;99.90;;;;;;4955753;29;19949;-80
2022/09/30 13:49:19;;;;;;;;;;;15.40;99.90;;;;;;4938376;29;20259;-81
2022/09/30 13:51:45;;;;;;;;;;;15.40;99.90;;;;;;4955651;29;20346;-80
2022/09/30 13:54:14;;;;;;;;;;;15.40;99.90;;;;;;4955567;29;19917;-81
2022/09/30 13:56:40;;;;;;;;;;;15.50;99.90;;;;;;4955623;29;19906;-80
2022/09/30 13:59:08;;;;;;;;;;;15.50;99.90;;;;;;4938149;29;19917;-81
2022/09/30 14:01:50;;;;;;;;;;;15.50;99.90;;;;;;4955509;29;20277;-80
2022/09/30 14:04:31;;;;;;;;;;;15.40;99.90;;;;;;4952522;28;19988;-80
2022/09/30 14:07:15;;;;;;;;;;;15.40;99.90;;;;;;4959723;28;19913;-80
2022/09/30 14:09:46;;;;;;;;;;;15.40;99.90;;;;;;4955909;28;20000;-81
2022/09/30 14:12:12;;;;;;;;;;;15.40;99.90;;;;;;4960682;28;20459;-80
2022/09/30 14:14:55;;;;;;;;;;;15.40;99.90;;;;;;4955318;28;19917;-81
2022/09/30 14:17:40;;;;;;;;;;;15.60;99.90;;;;;;4938438;28;19953;-81
2022/09/30 14:20:09;;;;;;;;;;;15.60;99.90;;;;;;4937857;28;19913;-81
2022/09/30 14:22:35;;;;;;;;;;;15.60;99.90;;;;;;4937855;28;19906;-81
2022/09/30 14:25:01;;;;;;;;;;;15.60;99.90;;;;;;4938227;28;19915;-81
2022/09/30 14:27:36;;;;;;;;;;;15.50;99.90;;;;;;4937775;28;19907;-81
2022/09/30 14:30:10;;;;;;;;;;;15.50;99.90;;;;;;4937846;28;19915;-81
2022/09/30 14:32:45;;;;;;;;;;;15.50;99.90;;;;;;4935549;28;19950;-82
2022/09/30 14:35:13;;;;;;;;;;;15.50;99.90;;;;;;4944714;28;19941;-81
2022/09/30 14:37:43;;;;;;;;;;;15.50;99.90;;;;;;4953520;28;20340;-81